Star Markella — V7KL3 — position and weather

sailwx.info

Track history (hours):
 
Tides and Currents Weather Stations Pressure Air Temp Water Temp Dewpoint Dewpoint Depression Visibility Wind Speed Wind Dir Waves Ship Positions

Star Markella

Last reported at 2017-Aug-16 16:53 UTC. Time now 2017-Aug-18 05:01 UTC.
Position N 31°05' E 122°34'.

Length 229 m; draft 7.3 m.

Type: Cargo ship. MMSI: 538002640.

Date/timePositionNaut miles runAvg speedWind from/ knotsBaromVisibWave heightAir tempDewpointWater temp
2017-Aug-16 16:53N 31°05' E 122°34'511.8
2017-Aug-16 16:26N 31°05' E 122°27'510.8
2017-Aug-16 16:00N 31°06' E 122°22'611.1
2017-Aug-16 15:30N 31°07' E 122°16'714.4
2017-Aug-16 15:00N 31°12' E 122°09'714.6
2017-Aug-16 14:30N 31°14' E 122°01'715.0
2017-Aug-16 14:01N 31°16' E 121°53'714.6
2017-Aug-16 13:30N 31°19' E 121°45'612.2
2017-Aug-16 13:00N 31°21' E 121°38'510.4
2017-Aug-16 12:30N 31°24' E 121°33'4 8.7
2017-Aug-16 12:00N 31°26' E 121°29'4 8.2
2017-Aug-16 11:30N 31°29' E 121°26'511.0
2017-Aug-16 11:00N 31°33' E 121°20'510.7
2017-Aug-16 10:30N 31°37' E 121°16'611.3
2017-Aug-16 10:00N 31°40' E 121°11'612.0
2017-Aug-16 09:30N 31°44' E 121°06'713.7
2017-Aug-16 09:01N 31°47' E 120°58'2611.5
2017-Aug-16 06:44N 32°01' E 120°33'613.9
2017-Aug-16 06:19N 32°02' E 120°26'2212.9
2017-Aug-16 04:39N 31°58' E 120°01'213.0
2017-Aug-16 04:30N 31°59' E 119°59'714.1
2017-Aug-16 04:00N 32°06' E 119°55'  
2017-Aug-11 20:57N 32°07' E 119°55'5 9.4
2017-Aug-11 20:27N 32°03' E 119°56'4 8.1
2017-Aug-11 19:58N 31°60' E 119°59'4 8.8
2017-Aug-11 19:29N 31°58' E 120°04'4 9.3
2017-Aug-11 19:00N 31°56' E 120°09'4 7.5
2017-Aug-11 18:29N 31°56' E 120°13'4 8.8
2017-Aug-11 18:00N 31°57' E 120°18'5 9.5
2017-Aug-11 17:30N 32°00' E 120°23'4 8.7
2017-Aug-11 17:00N 32°02' E 120°27'5 8.7
2017-Aug-11 16:29N 32°01' E 120°32'5 9.3
2017-Aug-11 15:55N 31°60' E 120°38'22 7.1
2017-Aug-11 12:48N 31°47' E 120°59'2 7.6
2017-Aug-11 12:29N 31°46' E 121°02'4 8.4
2017-Aug-11 11:59N 31°44' E 121°06'4 9.4
2017-Aug-11 11:30N 31°41' E 121°10'5 8.7
2017-Aug-11 10:58N 31°38' E 121°14'510.4
2017-Aug-11 10:30N 31°35' E 121°18'5 9.5
2017-Aug-11 10:00N 31°32' E 121°22'510.9
2017-Aug-11 09:30N 31°28' E 121°27'3 5.8
2017-Aug-11 09:00N 31°26' E 121°30'3 6.3
2017-Aug-11 08:30N 31°24' E 121°33'5 9.1
2017-Aug-11 08:00N 31°22' E 121°37'4 8.9
2017-Aug-11 07:30N 31°20' E 121°42'510.5
2017-Aug-11 07:00N 31°18' E 121°47'611.6
2017-Aug-11 06:30N 31°16' E 121°54'612.4
2017-Aug-11 06:00N 31°15' E 122°01'611.7
2017-Aug-11 05:30N 31°13' E 122°08'612.9
2017-Aug-11 05:00N 31°09' E 122°13'612.2
2017-Aug-11 04:30N 31°06' E 122°20'510.3
2017-Aug-11 04:00N 31°07' E 122°26'3 6.9
2017-Aug-11 03:30N 31°07' E 122°30'2 3.9
2017-Aug-11 03:00N 31°07' E 122°32'3 5.7
2017-Aug-11 02:29N 31°07' E 122°35'4 7.4
2017-Aug-11 02:00N 31°07' E 122°40'4 7.4
2017-Aug-11 01:30N 31°06' E 122°44'5 9.7
2017-Aug-11 01:00N 31°05' E 122°49'611.2
2017-Aug-11 00:30N 31°04' E 122°56'30 9.0
2017-Aug-10 21:10N 30°44' E 123°21'511.0
2017-Aug-10 20:45N 30°39' E 123°22'311.0
2017-Aug-10 20:28N 30°36' E 123°21'40711.7
2017-Aug-09 09:40N 24°57' E 119°07'410.3
2017-Aug-09 09:16N 24°60' E 119°04'3 9.2
2017-Aug-09 08:53N 25°03' E 119°03'3 8.4
2017-Aug-09 08:28N 25°06' E 119°00'511.3
2017-Aug-09 08:00N 25°11' E 119°00'2 3.5
2017-Aug-09 07:18N 25°13' E 118°58'0 0.0
2017-Aug-09 07:00N 25°13' E 118°58'0 0.0
2017-Aug-09 06:30N 25°13' E 118°58'0 0.0
2017-Aug-09 06:00N 25°13' E 118°58'0 0.0
2017-Aug-09 05:30N 25°13' E 118°58'0 0.0
2017-Aug-09 05:00N 25°13' E 118°58'0 0.0
2017-Aug-09 04:30N 25°13' E 118°58'0 0.0
2017-Aug-09 04:00N 25°13' E 118°58'0 0.0
2017-Aug-09 03:18N 25°13' E 118°58'0 0.0
2017-Aug-09 03:00N 25°13' E 118°58'0 0.0
2017-Aug-09 02:30N 25°13' E 118°58'0 0.0
2017-Aug-09 02:00N 25°13' E 118°58'0 0.0
2017-Aug-09 01:18N 25°13' E 118°58'0 0.0
2017-Aug-08 22:30N 25°13' E 118°58'0 0.0
2017-Aug-08 21:42N 25°13' E 118°58'0 0.0
2017-Aug-08 21:30N 25°13' E 118°58'0 0.0
2017-Aug-08 21:00N 25°13' E 118°58'0 0.0
2017-Aug-08 20:30N 25°13' E 118°58'0 0.0
2017-Aug-08 18:12N 25°13' E 118°58'0 0.0
2017-Aug-08 17:54N 25°13' E 118°58'0 0.0
2017-Aug-08 17:30N 25°13' E 118°58'0 0.0
2017-Aug-08 17:00N 25°13' E 118°58'0 0.0
2017-Aug-08 15:42N 25°13' E 118°58'0 0.0
2017-Aug-08 15:30N 25°13' E 118°58'0 0.0
2017-Aug-08 15:00N 25°13' E 118°58'0 0.0
2017-Aug-08 14:18N 25°13' E 118°58'0 0.0
2017-Aug-08 13:42N 25°13' E 118°58'0 0.0
2017-Aug-08 13:30N 25°13' E 118°58'0 0.0
2017-Aug-08 13:00N 25°13' E 118°58'0 0.0
2017-Aug-08 11:48N 25°13' E 118°58'0 0.0
2017-Aug-08 11:18N 25°13' E 118°58'0 0.0
2017-Aug-08 10:48N 25°13' E 118°58'0 0.0
2017-Aug-08 10:18N 25°13' E 118°58'0 0.0
2017-Aug-08 09:48N 25°13' E 118°58'0 0.0
2017-Aug-08 09:18N 25°13' E 118°58'0 0.0
2017-Aug-08 08:48N 25°13' E 118°58'0 0.0
2017-Aug-08 08:30N 25°13' E 118°58'0 0.0
2017-Aug-08 07:54N 25°13' E 118°58'0 0.0
2017-Aug-08 07:24N 25°13' E 118°58'0 0.0
2017-Aug-08 07:00N 25°13' E 118°58'0 0.0
2017-Aug-08 06:30N 25°13' E 118°58'0 0.0
2017-Aug-08 06:00N 25°13' E 118°58'0 0.0
2017-Aug-08 05:30N 25°13' E 118°58'0 0.0
2017-Aug-08 04:54N 25°13' E 118°58'  
Track history (hours):
 
Tides and Currents Weather Stations Pressure Air Temp Water Temp Dewpoint Dewpoint Depression Visibility Wind Speed Wind Dir Waves Ship Positions

Star Markella

Last reported at 2017-Aug-16 16:53 UTC. Time now 2017-Aug-18 05:01 UTC.
Position N 31°05' E 122°34'.

Length 229 m; draft 7.3 m.

Type: Cargo ship. MMSI: 538002640.

Date/timePositionNaut miles runAvg speedWind from/ knotsBaromVisibWave heightAir tempDewpointWater temp
2017-Aug-16 16:53N 31°05' E 122°34'511.8
2017-Aug-16 16:26N 31°05' E 122°27'510.8
2017-Aug-16 16:00N 31°06' E 122°22'611.1
2017-Aug-16 15:30N 31°07' E 122°16'714.4
2017-Aug-16 15:00N 31°12' E 122°09'714.6
2017-Aug-16 14:30N 31°14' E 122°01'715.0
2017-Aug-16 14:01N 31°16' E 121°53'714.6
2017-Aug-16 13:30N 31°19' E 121°45'612.2
2017-Aug-16 13:00N 31°21' E 121°38'510.4
2017-Aug-16 12:30N 31°24' E 121°33'4 8.7
2017-Aug-16 12:00N 31°26' E 121°29'4 8.2
2017-Aug-16 11:30N 31°29' E 121°26'511.0
2017-Aug-16 11:00N 31°33' E 121°20'510.7
2017-Aug-16 10:30N 31°37' E 121°16'611.3
2017-Aug-16 10:00N 31°40' E 121°11'612.0
2017-Aug-16 09:30N 31°44' E 121°06'713.7
2017-Aug-16 09:01N 31°47' E 120°58'2611.5
2017-Aug-16 06:44N 32°01' E 120°33'613.9
2017-Aug-16 06:19N 32°02' E 120°26'2212.9
2017-Aug-16 04:39N 31°58' E 120°01'213.0
2017-Aug-16 04:30N 31°59' E 119°59'714.1
2017-Aug-16 04:00N 32°06' E 119°55'  
2017-Aug-11 20:57N 32°07' E 119°55'5 9.4
2017-Aug-11 20:27N 32°03' E 119°56'4 8.1
2017-Aug-11 19:58N 31°60' E 119°59'4 8.8
2017-Aug-11 19:29N 31°58' E 120°04'4 9.3
2017-Aug-11 19:00N 31°56' E 120°09'4 7.5
2017-Aug-11 18:29N 31°56' E 120°13'4 8.8
2017-Aug-11 18:00N 31°57' E 120°18'5 9.5
2017-Aug-11 17:30N 32°00' E 120°23'4 8.7
2017-Aug-11 17:00N 32°02' E 120°27'5 8.7
2017-Aug-11 16:29N 32°01' E 120°32'5 9.3
2017-Aug-11 15:55N 31°60' E 120°38'22 7.1
2017-Aug-11 12:48N 31°47' E 120°59'2 7.6
2017-Aug-11 12:29N 31°46' E 121°02'4 8.4
2017-Aug-11 11:59N 31°44' E 121°06'4 9.4
2017-Aug-11 11:30N 31°41' E 121°10'5 8.7
2017-Aug-11 10:58N 31°38' E 121°14'510.4
2017-Aug-11 10:30N 31°35' E 121°18'5 9.5
2017-Aug-11 10:00N 31°32' E 121°22'510.9
2017-Aug-11 09:30N 31°28' E 121°27'3 5.8
2017-Aug-11 09:00N 31°26' E 121°30'3 6.3
2017-Aug-11 08:30N 31°24' E 121°33'5 9.1
2017-Aug-11 08:00N 31°22' E 121°37'4 8.9
2017-Aug-11 07:30N 31°20' E 121°42'510.5
2017-Aug-11 07:00N 31°18' E 121°47'611.6
2017-Aug-11 06:30N 31°16' E 121°54'612.4
2017-Aug-11 06:00N 31°15' E 122°01'611.7
2017-Aug-11 05:30N 31°13' E 122°08'612.9
2017-Aug-11 05:00N 31°09' E 122°13'612.2
2017-Aug-11 04:30N 31°06' E 122°20'510.3
2017-Aug-11 04:00N 31°07' E 122°26'3 6.9
2017-Aug-11 03:30N 31°07' E 122°30'2 3.9
2017-Aug-11 03:00N 31°07' E 122°32'3 5.7
2017-Aug-11 02:29N 31°07' E 122°35'4 7.4
2017-Aug-11 02:00N 31°07' E 122°40'4 7.4
2017-Aug-11 01:30N 31°06' E 122°44'5 9.7
2017-Aug-11 01:00N 31°05' E 122°49'611.2
2017-Aug-11 00:30N 31°04' E 122°56'30 9.0
2017-Aug-10 21:10N 30°44' E 123°21'511.0
2017-Aug-10 20:45N 30°39' E 123°22'311.0
2017-Aug-10 20:28N 30°36' E 123°21'40711.7
2017-Aug-09 09:40N 24°57' E 119°07'410.3
2017-Aug-09 09:16N 24°60' E 119°04'3 9.2
2017-Aug-09 08:53N 25°03' E 119°03'3 8.4
2017-Aug-09 08:28N 25°06' E 119°00'511.3
2017-Aug-09 08:00N 25°11' E 119°00'2 3.5
2017-Aug-09 07:18N 25°13' E 118°58'0 0.0
2017-Aug-09 07:00N 25°13' E 118°58'0 0.0
2017-Aug-09 06:30N 25°13' E 118°58'0 0.0
2017-Aug-09 06:00N 25°13' E 118°58'0 0.0
2017-Aug-09 05:30N 25°13' E 118°58'0 0.0
2017-Aug-09 05:00N 25°13' E 118°58'0 0.0
2017-Aug-09 04:30N 25°13' E 118°58'0 0.0
2017-Aug-09 04:00N 25°13' E 118°58'0 0.0
2017-Aug-09 03:18N 25°13' E 118°58'0 0.0
2017-Aug-09 03:00N 25°13' E 118°58'0 0.0
2017-Aug-09 02:30N 25°13' E 118°58'0 0.0
2017-Aug-09 02:00N 25°13' E 118°58'0 0.0
2017-Aug-09 01:18N 25°13' E 118°58'0 0.0
2017-Aug-08 22:30N 25°13' E 118°58'0 0.0
2017-Aug-08 21:42N 25°13' E 118°58'0 0.0
2017-Aug-08 21:30N 25°13' E 118°58'0 0.0
2017-Aug-08 21:00N 25°13' E 118°58'0 0.0
2017-Aug-08 20:30N 25°13' E 118°58'0 0.0
2017-Aug-08 18:12N 25°13' E 118°58'0 0.0
2017-Aug-08 17:54N 25°13' E 118°58'0 0.0
2017-Aug-08 17:30N 25°13' E 118°58'0 0.0
2017-Aug-08 17:00N 25°13' E 118°58'0 0.0
2017-Aug-08 15:42N 25°13' E 118°58'0 0.0
2017-Aug-08 15:30N 25°13' E 118°58'0 0.0
2017-Aug-08 15:00N 25°13' E 118°58'0 0.0
2017-Aug-08 14:18N 25°13' E 118°58'0 0.0
2017-Aug-08 13:42N 25°13' E 118°58'0 0.0
2017-Aug-08 13:30N 25°13' E 118°58'0 0.0
2017-Aug-08 13:00N 25°13' E 118°58'0 0.0
2017-Aug-08 11:48N 25°13' E 118°58'0 0.0
2017-Aug-08 11:18N 25°13' E 118°58'0 0.0
2017-Aug-08 10:48N 25°13' E 118°58'0 0.0
2017-Aug-08 10:18N 25°13' E 118°58'0 0.0
2017-Aug-08 09:48N 25°13' E 118°58'0 0.0
2017-Aug-08 09:18N 25°13' E 118°58'0 0.0
2017-Aug-08 08:48N 25°13' E 118°58'0 0.0
2017-Aug-08 08:30N 25°13' E 118°58'0 0.0
2017-Aug-08 07:54N 25°13' E 118°58'0 0.0
2017-Aug-08 07:24N 25°13' E 118°58'0 0.0
2017-Aug-08 07:00N 25°13' E 118°58'0 0.0
2017-Aug-08 06:30N 25°13' E 118°58'0 0.0
2017-Aug-08 06:00N 25°13' E 118°58'0 0.0
2017-Aug-08 05:30N 25°13' E 118°58'0 0.0
2017-Aug-08 04:54N 25°13' E 118°58'  

Dump ship's entire track history